Almont, MI

1:27 PM EDT on May 29, 2015 (GMT -0400)
Village of Leonard | | Change Station
CLOSE
Current Station
Personal Weather Station
Location: Leonard, MI
Elevation: 1014 ft
Nearby Weather Stations

Elev 1014 ft 42.87 °N, 83.15 °W | Updated 12 seconds ago

Overcast
Overcast
79.3 °F
Feels Like 81 °F
N
2.7
Wind Variable Wind from SE
Gusts 4.9 mph

Today
High -- | Low -- °F
--% Chance of Precip.
Yesterday
High -- | Low -- °F
Precip. -- in
5:57 AM 9:01 PM
Waxing Gibbous, 85% visible
Pressure 30.10 in
Visibility 10.0 miles
Clouds Mostly Cloudy 4200 ft
Mostly Cloudy 9000 ft
Heat Index 81 °F
Dew Point 66 °F
Humidity 64%
Rainfall 0.00 in
Snow Depth Not available.
UV 6 out of 12
Pollen 8.00 out of 12
Air Quality Not available.
Flu Activity Sporadic
METAR KD95 291713Z AUTO 20011G18KT 10SM BKN042 BKN090 27/16 A3010 RMK AO2 T02740162

More Conditions Fewer Conditions

Pressure 30.10 in
Visibility 10.0 miles
Clouds Mostly Cloudy 4200 ft
Mostly Cloudy 9000 ft
Heat Index 81 °F
Dew Point 66 °F
Humidity 64%
Rainfall 0.00 in
Snow Depth Not available.
UV 6 out of 12
Pollen 8.00 out of 12
Air Quality Not available.
Flu Activity Sporadic
METAR KD95 291713Z AUTO 20011G18KT 10SM BKN042 BKN090 27/16 A3010 RMK AO2 T02740162

More Conditions Fewer Conditions

10-Day Weather Forecast

Almanac

Astronomy

May. 29, 2015 Rise Set
Actual Time
Civil Twilight
Nautical Twilight
Astronomical Twilight
Moon
Length of Visible Light
Length of Day
Tomorrow will be .
, % of the Moon is Illuminated

Today's Extremes

State Highs State Lows

Community

WunderPhotos

Upload Photos

1,825,306 photos uploaded!

WunderBlogs® & News

Nearby

Air Quality

  Air Quality AQ Index Pollutant
Not available.

Snow Depth

Station Depth Elevation

Earthquake Activity

City Distance Mag. Time & Date
Minimum magnitude displayed is 2.5.

Coastal Water Temperatures

Place Temperature

Stations

Nearby Weather Stations

Station Location Temp. Windchill Dew Point Humidity Wind Precip. Elev Updated Type